KMEM/MEM METAR and TAF weather

Enter ICAO airport designator
Station Type Date Time Source
KMEM METAR 2021/03/08 02:54 UTC NOAA

KMEM 080254Z 00000KT 10SM SCT250 11/M01 A3043 RMK AO2 SLP306 T01061011 51011 $


Station Type Date Time Source
KMEM Decoded METAR 2021/03/08 02:54 UTC NOAA

MEMPHIS INTERNATIONAL AIRPORT , TN, United States (KMEM) 35-02N 089-59W 86M
Mar 07, 2021 - 09:54 PM EST / 2021.03.08 0254 UTC
Wind: Calm:0
Visibility: 10 mile(s):0
Sky conditions: partly cloudy
Temperature: 51.1 F (10.6 C)
Dew Point: 30.0 F (-1.1 C)
Relative Humidity: 44%
Pressure (altimeter): 30.43 in. Hg (1030 hPa)
Pressure tendency: 0.03 inches (1.1 hPa) higher than three hours ago
ob: KMEM 080254Z 00000KT 10SM SCT250 11/M01 A3043 RMK AO2 SLP306 T01061011 51011
cycle: 3

Station Type Date Time Source
KMEM TAF 2021/03/08 03:54 UTC NOAA

TAF
AMD KMEM 080251Z 0803/0906 28003KT P6SM FEW250
FM081700 19008KT P6SM SKC

Example: see airport list